createdAt,value
2023-05-17T00:02:03.379Z,4.20
2023-05-17T00:04:49.135Z,4.60
2023-05-17T00:07:34.997Z,4.75
2023-05-17T00:10:20.872Z,5.20
2023-05-17T00:13:06.851Z,4.97
2023-05-17T00:15:52.747Z,4.82
2023-05-17T00:18:40.345Z,5.30
2023-05-17T00:21:26.669Z,4.88
2023-05-17T00:24:12.780Z,5.03
2023-05-17T00:26:58.384Z,4.88
2023-05-17T00:29:44.346Z,5.60
2023-05-17T00:32:30.217Z,4.53
2023-05-17T00:35:17.667Z,4.65
2023-05-17T00:38:03.913Z,5.45
2023-05-17T00:40:50.364Z,5.53
2023-05-17T00:43:36.062Z,5.20
2023-05-17T00:46:21.711Z,5.40
2023-05-17T00:49:07.741Z,5.50
2023-05-17T00:51:55.819Z,5.00
2023-05-17T00:54:42.189Z,5.20
2023-05-17T00:57:29.260Z,5.53
2023-05-17T01:00:15.605Z,5.85
2023-05-17T01:03:01.507Z,5.40
2023-05-17T01:05:48.376Z,5.07
2023-05-17T01:08:35.522Z,5.22
2023-05-17T01:11:31.969Z,5.15
2023-05-17T01:14:27.236Z,4.85
2023-05-17T01:17:17.053Z,5.38
2023-05-17T01:20:10.985Z,5.07
2023-05-17T01:23:16.628Z,5.15
2023-05-17T01:26:10.903Z,5.57
2023-05-17T01:29:01.040Z,5.55
2023-05-17T01:31:48.290Z,5.63
2023-05-17T01:34:35.408Z,5.85
2023-05-17T01:37:21.880Z,5.88
2023-05-17T01:40:09.535Z,6.65
2023-05-17T01:43:03.236Z,6.55
2023-05-17T01:45:59.841Z,5.47
2023-05-17T01:48:52.757Z,6.07
2023-05-17T01:51:47.526Z,5.63
2023-05-17T01:54:39.294Z,5.47
2023-05-17T01:57:32.488Z,5.88
2023-05-17T02:00:19.336Z,5.50
2023-05-17T02:03:06.540Z,5.95
2023-05-17T02:05:52.141Z,5.30
2023-05-17T02:08:38.134Z,5.72
2023-05-17T02:11:23.792Z,5.30
2023-05-17T02:14:11.628Z,5.32
2023-05-17T02:16:57.357Z,5.50
2023-05-17T02:19:44.544Z,5.65
2023-05-17T02:22:30.311Z,5.18
2023-05-17T02:25:17.235Z,5.28
2023-05-17T02:28:02.886Z,4.97
2023-05-17T02:30:48.747Z,4.85
2023-05-17T02:33:34.525Z,4.95
2023-05-17T02:36:22.051Z,4.95
2023-05-17T02:39:07.816Z,4.82
2023-05-17T02:41:53.393Z,4.53
2023-05-17T02:44:39.158Z,5.22
2023-05-17T02:47:24.948Z,5.45
2023-05-17T02:50:10.945Z,4.68
2023-05-17T02:52:58.269Z,5.18
2023-05-17T02:55:44.063Z,5.07
2023-05-17T02:58:30.084Z,5.55
2023-05-17T03:01:16.048Z,5.25
2023-05-17T03:04:01.987Z,4.97
2023-05-17T03:06:48.032Z,5.72
2023-05-17T03:09:35.453Z,5.45
2023-05-17T03:12:21.038Z,4.93
2023-05-17T03:15:07.515Z,5.45
2023-05-17T03:17:53.557Z,5.80
2023-05-17T03:20:39.135Z,5.03
2023-05-17T03:23:25.937Z,5.25
2023-05-17T03:31:55.240Z,5.05
2023-05-17T03:34:41.324Z,5.07
2023-05-17T03:37:27.366Z,4.78
2023-05-17T03:40:13.081Z,5.22
2023-05-17T03:43:00.045Z,5.70
2023-05-17T03:45:47.524Z,6.00
2023-05-17T03:48:36.493Z,5.65
2023-05-17T03:51:23.628Z,5.75
2023-05-17T03:54:09.211Z,5.20
2023-05-17T03:56:55.822Z,4.78
2023-05-17T03:59:43.686Z,5.82
2023-05-17T04:02:29.351Z,5.45
2023-05-17T04:05:15.188Z,5.50
2023-05-17T04:08:05.343Z,5.63
2023-05-17T04:10:51.355Z,5.57
2023-05-17T04:13:39.980Z,5.82
2023-05-17T04:16:27.051Z,5.53
2023-05-17T04:19:14.686Z,4.90
2023-05-17T04:22:00.260Z,5.60
2023-05-17T04:24:46.864Z,5.40
2023-05-17T04:27:33.350Z,5.38
2023-05-17T04:30:21.409Z,4.72
2023-05-17T04:33:08.402Z,5.47
2023-05-17T04:35:55.162Z,4.82
2023-05-17T04:38:41.627Z,4.88
2023-05-17T04:41:31.331Z,4.82
2023-05-17T04:44:18.606Z,4.57
2023-05-17T04:47:04.919Z,4.53
2023-05-17T04:49:52.334Z,4.28
2023-05-17T04:52:38.715Z,3.95
2023-05-17T04:55:24.539Z,3.90
2023-05-17T04:58:10.802Z,3.50
2023-05-17T05:00:57.774Z,4.32
2023-05-17T05:03:43.955Z,3.22
2023-05-17T05:06:32.764Z,3.42
2023-05-17T05:09:18.990Z,3.08
2023-05-17T05:12:06.486Z,3.10
2023-05-17T05:14:53.179Z,2.85
2023-05-17T05:17:39.184Z,3.05
2023-05-17T05:20:27.691Z,3.85
2023-05-17T05:23:18.432Z,3.30
2023-05-17T05:28:51.961Z,3.17
2023-05-17T05:31:38.089Z,3.28
2023-05-17T05:34:27.411Z,3.40
2023-05-17T05:37:15.720Z,3.90
2023-05-17T05:40:04.212Z,2.50
2023-05-17T05:42:50.179Z,2.60
2023-05-17T05:45:36.303Z,2.67
2023-05-17T05:48:22.932Z,2.60
2023-05-17T05:51:08.917Z,3.00
2023-05-17T05:53:58.539Z,2.72
2023-05-17T05:56:46.445Z,2.70
2023-05-17T05:59:34.623Z,2.58
2023-05-17T06:02:21.334Z,3.00
2023-05-17T06:05:08.268Z,2.78
2023-05-17T06:07:54.194Z,2.65
2023-05-17T06:10:40.249Z,2.42
2023-05-17T06:13:27.385Z,2.67
2023-05-17T06:16:13.321Z,2.20
2023-05-17T06:18:59.532Z,2.50
2023-05-17T06:21:45.190Z,2.17
2023-05-17T06:24:30.947Z,1.90
2023-05-17T06:27:17.064Z,2.20
2023-05-17T06:30:07.334Z,2.53
2023-05-17T06:32:53.384Z,2.33
2023-05-17T06:35:54.801Z,2.40
2023-05-17T06:38:41.993Z,2.05
2023-05-17T06:41:27.695Z,1.73
2023-05-17T06:44:14.112Z,2.35
2023-05-17T06:47:01.382Z,3.40
2023-05-17T06:49:47.223Z,1.92
2023-05-17T06:52:33.049Z,1.55
2023-05-17T06:55:18.935Z,1.70
2023-05-17T06:58:04.808Z,1.85
2023-05-17T07:00:50.937Z,1.73
2023-05-17T07:03:38.015Z,1.83
2023-05-17T07:06:24.258Z,1.88
2023-05-17T07:09:10.216Z,1.80
2023-05-17T07:11:56.096Z,1.40
2023-05-17T07:14:42.127Z,1.30
2023-05-17T07:17:28.866Z,1.55
2023-05-17T07:20:16.656Z,1.38
2023-05-17T07:23:02.486Z,1.48
2023-05-17T07:25:48.978Z,1.67
2023-05-17T07:28:34.778Z,1.65
2023-05-17T07:31:20.408Z,1.80
2023-05-17T07:34:06.018Z,1.83
2023-05-17T07:36:53.448Z,2.38
2023-05-17T07:39:39.375Z,1.98
2023-05-17T07:42:25.515Z,2.33
2023-05-17T07:45:11.815Z,1.58
2023-05-17T07:47:57.674Z,1.85
2023-05-17T07:50:45.059Z,1.88
2023-05-17T07:53:32.390Z,1.73
2023-05-17T07:56:18.168Z,1.65
2023-05-17T07:59:03.706Z,1.17
2023-05-17T08:01:49.940Z,1.33
2023-05-17T08:04:36.126Z,1.52
2023-05-17T08:07:21.973Z,1.50
2023-05-17T08:10:10.658Z,1.75
2023-05-17T08:12:56.861Z,1.35
2023-05-17T08:15:43.006Z,1.40
2023-05-17T08:18:29.049Z,1.27
2023-05-17T08:21:14.995Z,1.30
2023-05-17T08:24:03.330Z,1.33
2023-05-17T08:26:51.127Z,1.20
2023-05-17T08:29:39.527Z,1.30
2023-05-17T08:32:26.177Z,1.65
2023-05-17T08:35:12.660Z,1.45
2023-05-17T08:37:58.629Z,1.80
2023-05-17T08:40:44.419Z,1.60
2023-05-17T08:43:32.366Z,1.52
2023-05-17T08:46:23.617Z,1.58
2023-05-17T08:49:12.991Z,1.25
2023-05-17T08:52:00.803Z,1.38
2023-05-17T08:54:47.268Z,1.58
2023-05-17T08:57:36.224Z,1.30
2023-05-17T09:00:25.095Z,1.30
2023-05-17T09:03:17.926Z,1.10
2023-05-17T09:06:04.838Z,1.70
2023-05-17T09:08:54.710Z,1.65
2023-05-17T09:11:40.997Z,1.77
2023-05-17T09:14:33.808Z,1.80
2023-05-17T09:17:22.102Z,1.60
2023-05-17T09:20:09.038Z,1.48
2023-05-17T09:22:55.729Z,1.42
2023-05-17T09:25:47.979Z,1.58
2023-05-17T09:28:39.063Z,1.58
2023-05-17T09:31:25.045Z,1.50
2023-05-17T09:34:15.117Z,1.00
2023-05-17T09:37:01.090Z,1.38
2023-05-17T09:39:48.277Z,1.13
2023-05-17T09:42:39.251Z,1.60
2023-05-17T09:45:25.533Z,1.25
2023-05-17T09:48:15.157Z,1.05
2023-05-17T09:51:02.570Z,1.40
2023-05-17T09:53:54.521Z,1.65
2023-05-17T09:56:41.018Z,1.70
2023-05-17T09:59:29.165Z,1.00
2023-05-17T10:02:22.157Z,1.63
2023-05-17T10:05:11.119Z,1.30
2023-05-17T10:07:58.742Z,1.20
2023-05-17T10:10:46.401Z,1.20
2023-05-17T10:13:35.087Z,1.10
2023-05-17T10:16:23.468Z,1.20
2023-05-17T10:19:11.539Z,1.10
2023-05-17T10:22:05.060Z,1.33
2023-05-17T10:25:07.905Z,1.20
2023-05-17T10:27:54.478Z,1.30
2023-05-17T10:30:41.514Z,1.25
2023-05-17T10:33:28.133Z,1.17
2023-05-17T10:36:17.365Z,1.10
2023-05-17T10:39:03.375Z,0.98
2023-05-17T10:41:55.762Z,1.20
2023-05-17T10:44:49.275Z,1.10
2023-05-17T10:47:35.690Z,0.98
2023-05-17T10:50:27.002Z,1.13
2023-05-17T10:53:13.003Z,1.08
2023-05-17T10:55:58.883Z,1.00
2023-05-17T10:58:46.177Z,1.55
2023-05-17T11:01:52.981Z,1.17
2023-05-17T11:04:40.164Z,1.05
2023-05-17T11:07:29.443Z,1.20
2023-05-17T11:10:17.062Z,1.10
2023-05-17T11:13:22.764Z,1.35
2023-05-17T11:16:09.759Z,1.20
2023-05-17T11:19:06.425Z,1.35
2023-05-17T11:21:52.412Z,1.27
2023-05-17T11:24:44.037Z,1.20
2023-05-17T11:27:37.432Z,1.40
2023-05-17T11:30:24.673Z,1.27
2023-05-17T11:33:24.873Z,1.30
2023-05-17T11:36:22.779Z,0.95
2023-05-17T11:39:12.831Z,1.30
2023-05-17T11:41:58.724Z,1.50
2023-05-17T11:44:44.747Z,1.17
2023-05-17T11:47:31.383Z,1.20
2023-05-17T11:50:18.966Z,1.30
2023-05-17T11:53:05.394Z,1.92
2023-05-17T11:55:52.705Z,1.15
2023-05-17T11:58:38.859Z,1.35
2023-05-17T12:01:24.526Z,1.60
2023-05-17T12:04:10.563Z,1.40
2023-05-17T12:06:58.377Z,1.67
2023-05-17T12:09:46.192Z,1.40
2023-05-17T12:12:32.501Z,1.35
2023-05-17T12:15:19.602Z,1.70
2023-05-17T12:18:05.756Z,1.60
2023-05-17T12:20:59.091Z,1.67
2023-05-17T12:23:51.067Z,1.58
2023-05-17T12:26:43.919Z,1.10
2023-05-17T12:29:30.440Z,1.67
2023-05-17T12:32:16.594Z,1.27
2023-05-17T12:35:02.726Z,1.60
2023-05-17T12:37:48.828Z,1.35
2023-05-17T12:40:35.952Z,1.50
2023-05-17T12:43:24.333Z,2.00
2023-05-17T12:46:12.883Z,1.52
2023-05-17T12:49:05.537Z,1.75
2023-05-17T12:51:51.645Z,1.60
2023-05-17T12:54:40.890Z,1.33
2023-05-17T12:57:29.835Z,1.65
2023-05-17T13:00:17.754Z,1.67
2023-05-17T13:03:09.890Z,1.58
2023-05-17T13:06:00.186Z,2.05
2023-05-17T13:08:58.820Z,2.05
2023-05-17T13:11:50.186Z,1.70
2023-05-17T13:14:45.301Z,1.73
2023-05-17T13:17:35.960Z,1.45
2023-05-17T13:20:22.244Z,1.60
2023-05-17T13:23:07.908Z,1.60
2023-05-17T13:25:54.114Z,1.55
2023-05-17T13:28:41.355Z,1.35
2023-05-17T13:31:28.467Z,1.63
2023-05-17T13:34:14.232Z,1.40
2023-05-17T13:36:59.954Z,1.63
2023-05-17T13:39:45.886Z,1.40
2023-05-17T13:42:32.101Z,1.63
2023-05-17T13:45:18.113Z,1.30
2023-05-17T13:48:05.905Z,1.40
2023-05-17T13:50:52.240Z,1.70
2023-05-17T13:53:38.810Z,1.33
2023-05-17T13:56:24.807Z,1.60
2023-05-17T13:59:10.652Z,1.50
2023-05-17T14:01:56.387Z,1.40
2023-05-17T14:04:43.611Z,1.60
2023-05-17T14:07:29.197Z,1.55
2023-05-17T14:10:15.319Z,1.20
2023-05-17T14:13:01.638Z,1.60
2023-05-17T14:15:47.710Z,1.50
2023-05-17T14:18:33.747Z,1.80
2023-05-17T14:21:21.120Z,1.80
2023-05-17T14:24:07.157Z,2.08
2023-05-17T14:26:53.156Z,1.92
2023-05-17T14:29:39.053Z,1.65
2023-05-17T14:32:25.063Z,2.03
2023-05-17T14:35:11.402Z,1.92
2023-05-17T14:37:58.611Z,1.80
2023-05-17T14:40:44.496Z,1.63
2023-05-17T14:43:30.611Z,1.40
2023-05-17T14:46:17.063Z,1.98
2023-05-17T14:49:02.811Z,2.03
2023-05-17T14:51:48.664Z,1.65
2023-05-17T14:54:36.025Z,2.10
2023-05-17T14:57:22.017Z,1.63
2023-05-17T15:00:10.522Z,1.83
2023-05-17T15:02:56.829Z,1.50
2023-05-17T15:05:42.760Z,1.90
2023-05-17T15:08:29.559Z,1.58
2023-05-17T15:11:16.588Z,1.92
2023-05-17T15:14:02.659Z,1.63
2023-05-17T15:16:48.928Z,1.83
2023-05-17T15:19:34.861Z,1.58
2023-05-17T15:22:23.877Z,1.40
2023-05-17T15:25:09.959Z,1.73
2023-05-17T15:27:57.447Z,1.83
2023-05-17T15:30:43.503Z,1.90
2023-05-17T15:33:30.808Z,1.75
2023-05-17T15:36:16.760Z,1.75
2023-05-17T15:39:02.933Z,1.45
2023-05-17T15:41:48.836Z,2.28
2023-05-17T15:44:36.255Z,1.80
2023-05-17T15:47:26.156Z,1.65
2023-05-17T15:50:17.656Z,1.30
2023-05-17T15:53:03.303Z,1.85
2023-05-17T15:55:51.998Z,1.48
2023-05-17T15:58:37.973Z,2.00
2023-05-17T16:01:24.937Z,1.60
2023-05-17T16:04:10.876Z,1.70
2023-05-17T16:06:57.097Z,1.98
2023-05-17T16:09:42.902Z,1.50
2023-05-17T16:12:28.739Z,1.88
2023-05-17T16:15:14.453Z,2.05
2023-05-17T16:18:01.813Z,1.80
2023-05-17T16:20:47.367Z,1.70
2023-05-17T16:23:33.450Z,2.05
2023-05-17T16:26:19.411Z,2.50
2023-05-17T16:29:05.664Z,1.80
2023-05-17T16:31:52.969Z,2.20
2023-05-17T16:34:40.067Z,1.88
2023-05-17T16:37:26.295Z,1.58
2023-05-17T16:40:12.545Z,2.28
2023-05-17T16:42:58.081Z,2.10
2023-05-17T16:45:44.770Z,1.70
2023-05-17T16:48:30.558Z,1.83
2023-05-17T16:51:17.894Z,1.73
2023-05-17T16:54:03.785Z,2.00
2023-05-17T16:56:49.673Z,2.00
2023-05-17T16:59:35.575Z,1.90
2023-05-17T17:02:21.773Z,1.58
2023-05-17T17:05:08.384Z,1.80
2023-05-17T17:07:55.497Z,2.05
2023-05-17T17:10:41.318Z,1.95
2023-05-17T17:13:27.297Z,1.67
2023-05-17T17:16:13.172Z,1.85
2023-05-17T17:18:59.386Z,2.20
2023-05-17T17:21:48.662Z,2.13
2023-05-17T17:24:35.992Z,1.90
2023-05-17T17:27:22.011Z,1.77
2023-05-17T17:30:08.664Z,1.92
2023-05-17T17:32:54.929Z,1.88
2023-05-17T17:35:41.073Z,2.20
2023-05-17T17:38:26.948Z,1.95
2023-05-17T17:41:14.287Z,1.67
2023-05-17T17:44:00.360Z,2.33
2023-05-17T17:46:46.168Z,2.40
2023-05-17T17:49:32.492Z,1.98
2023-05-17T17:52:18.358Z,1.75
2023-05-17T17:55:05.131Z,2.22
2023-05-17T17:57:52.591Z,1.88
2023-05-17T18:00:38.681Z,2.10
2023-05-17T18:03:24.571Z,1.77
2023-05-17T18:06:10.416Z,1.83
2023-05-17T18:08:57.757Z,2.00
2023-05-17T18:11:43.589Z,1.92
2023-05-17T18:14:30.843Z,1.88
2023-05-17T18:17:16.672Z,2.30
2023-05-17T18:20:02.526Z,1.90
2023-05-17T18:22:51.463Z,1.90
2023-05-17T18:25:37.370Z,2.10
2023-05-17T18:28:33.767Z,1.83
2023-05-17T18:31:28.260Z,1.90
2023-05-17T18:34:14.239Z,2.00
2023-05-17T18:37:00.544Z,2.35
2023-05-17T18:39:46.357Z,1.70
2023-05-17T18:42:32.248Z,2.00
2023-05-17T18:45:17.908Z,1.92
2023-05-17T18:48:05.396Z,1.60
2023-05-17T18:50:51.157Z,2.05
2023-05-17T18:53:37.164Z,2.60
2023-05-17T18:56:25.051Z,1.65
2023-05-17T18:59:11.014Z,2.35
2023-05-17T19:01:56.954Z,1.88
2023-05-17T19:04:44.096Z,1.65
2023-05-17T19:07:29.881Z,1.70
2023-05-17T19:10:15.891Z,1.58
2023-05-17T19:13:01.851Z,1.30
2023-05-17T19:15:48.485Z,2.08
2023-05-17T19:18:35.133Z,1.65
2023-05-17T19:21:22.699Z,1.73
2023-05-17T19:24:08.590Z,1.90
2023-05-17T19:26:54.587Z,2.30
2023-05-17T19:29:40.514Z,1.73
2023-05-17T19:32:26.946Z,1.90
2023-05-17T19:35:12.970Z,1.83
2023-05-17T19:38:00.315Z,2.25
2023-05-17T19:40:45.987Z,2.15
2023-05-17T19:43:34.394Z,1.65
2023-05-17T19:46:20.574Z,1.80
2023-05-17T19:49:06.717Z,1.67
2023-05-17T19:51:54.094Z,2.25
2023-05-17T19:54:41.375Z,2.15
2023-05-17T19:57:27.520Z,2.10
2023-05-17T20:00:14.060Z,1.90
2023-05-17T20:02:59.854Z,1.80
2023-05-17T20:05:45.883Z,1.50
2023-05-17T20:08:32.001Z,1.65
2023-05-17T20:11:19.254Z,1.73
2023-05-17T20:14:05.008Z,2.10
2023-05-17T20:16:51.286Z,2.38
2023-05-17T20:19:38.522Z,2.50
2023-05-17T20:22:24.479Z,2.75
2023-05-17T20:25:11.137Z,2.40
2023-05-17T20:27:58.314Z,3.10
2023-05-17T20:30:45.604Z,2.72
2023-05-17T20:33:31.692Z,2.97
2023-05-17T20:36:17.389Z,2.90
2023-05-17T20:39:03.478Z,3.13
2023-05-17T20:41:49.586Z,2.80
2023-05-17T20:44:36.703Z,2.45
2023-05-17T20:47:22.861Z,2.70
2023-05-17T20:50:12.225Z,2.50
2023-05-17T20:52:57.898Z,2.92
2023-05-17T20:55:44.487Z,2.35
2023-05-17T20:58:31.063Z,2.33
2023-05-17T21:01:18.749Z,2.58
2023-05-17T21:04:04.972Z,2.55
2023-05-17T21:06:50.695Z,2.17
2023-05-17T21:09:37.006Z,1.75
2023-05-17T21:12:23.954Z,2.08
2023-05-17T21:15:31.107Z,2.10
2023-05-17T21:18:17.927Z,2.05
2023-05-17T21:21:03.816Z,1.88
2023-05-17T21:23:49.601Z,2.03
2023-05-17T21:26:36.908Z,1.73
2023-05-17T21:29:24.932Z,2.28
2023-05-17T21:32:10.886Z,2.35
2023-05-17T21:34:59.589Z,2.35
2023-05-17T21:37:45.569Z,1.77
2023-05-17T21:40:31.962Z,2.15
2023-05-17T21:43:18.079Z,2.60
2023-05-17T21:46:03.758Z,3.22
2023-05-17T21:48:49.402Z,2.97
2023-05-17T21:51:36.561Z,2.38
2023-05-17T21:54:24.637Z,2.70
2023-05-17T21:57:10.508Z,2.78
2023-05-17T21:59:56.138Z,4.60
2023-05-17T22:02:43.153Z,3.25
2023-05-17T22:05:28.855Z,2.72
2023-05-17T22:08:17.723Z,2.88
2023-05-17T22:11:03.983Z,2.38
2023-05-17T22:13:50.511Z,2.15
2023-05-17T22:16:36.552Z,2.05
2023-05-17T22:19:23.382Z,2.17
2023-05-17T22:22:09.354Z,2.45
2023-05-17T22:24:56.511Z,2.60
2023-05-17T22:27:42.076Z,3.22
2023-05-17T22:30:28.019Z,2.85
2023-05-17T22:33:13.829Z,2.53
2023-05-17T22:36:02.435Z,2.50
2023-05-17T22:38:48.506Z,2.70
2023-05-17T22:41:36.287Z,2.33
2023-05-17T22:44:22.269Z,1.92
2023-05-17T22:47:09.221Z,2.45
2023-05-17T22:49:54.976Z,2.13
2023-05-17T22:52:42.630Z,3.03
2023-05-17T22:55:28.882Z,2.40
2023-05-17T22:58:16.410Z,2.05
2023-05-17T23:01:02.110Z,2.30
2023-05-17T23:03:47.879Z,2.33
2023-05-17T23:06:34.316Z,2.28
2023-05-17T23:09:21.254Z,2.67
2023-05-17T23:12:07.754Z,2.13
2023-05-17T23:14:57.866Z,2.28
2023-05-17T23:17:44.025Z,2.20
2023-05-17T23:20:29.746Z,2.80
2023-05-17T23:23:15.818Z,2.47
2023-05-17T23:26:01.872Z,2.58
2023-05-17T23:28:50.252Z,2.65
2023-05-17T23:31:37.831Z,2.50
2023-05-17T23:34:23.788Z,2.20
2023-05-17T23:37:09.738Z,2.17
2023-05-17T23:39:55.569Z,2.58
2023-05-17T23:42:41.787Z,2.50
2023-05-17T23:45:27.859Z,2.42
2023-05-17T23:48:16.048Z,2.70
2023-05-17T23:51:02.007Z,2.40
2023-05-17T23:53:48.984Z,2.90
2023-05-17T23:56:34.739Z,2.90
2023-05-17T23:59:22.781Z,2.88
